Time;durP1;ratioP1;P1;durP2;ratioP2;P2;SDS_P1;SDS_P2;PMS_P1;PMS_P2;Temp;Humidity;BMP_temperature;BMP_pressure;BME280_temperature;BME280_humidity;BME280_pressure;Samples;Min_cycle;Max_cycle;Signal;HPM_P1;HPM_P2
2022/06/11 00:01:45;;;;;;;4.40;3.30;;;18.30;71.90;;;;;;4991243;28;20497;-44
2022/06/11 00:04:31;;;;;;;4.70;4.03;;;18.20;72.10;;;;;;4988279;28;20487;-44
2022/06/11 00:07:03;;;;;;;4.47;3.60;;;18.20;72.00;;;;;;4988561;28;20890;-44
2022/06/11 00:09:31;;;;;;;9.07;4.00;;;18.20;72.10;;;;;;4990034;28;20838;-44
2022/06/11 00:11:58;;;;;;;4.43;3.67;;;18.20;71.90;;;;;;4976354;28;21036;-44
2022/06/11 00:14:28;;;;;;;7.33;3.93;;;18.10;71.90;;;;;;4984118;28;20475;-44
2022/06/11 00:16:57;;;;;;;4.20;3.80;;;18.10;72.00;;;;;;4989913;28;20473;-44
2022/06/11 00:19:24;;;;;;;9.00;3.73;;;18.10;72.00;;;;;;4988204;28;20942;-44
2022/06/11 00:21:53;;;;;;;4.70;3.43;;;18.00;72.20;;;;;;4989016;28;20863;-44
2022/06/11 00:24:22;;;;;;;4.60;4.20;;;17.90;72.50;;;;;;4989446;28;20465;-44
2022/06/11 00:26:51;;;;;;;8.60;3.90;;;17.90;72.80;;;;;;4990745;28;20467;-44
2022/06/11 00:29:19;;;;;;;4.43;4.03;;;17.90;73.30;;;;;;4972017;28;20469;-44
2022/06/11 00:31:46;;;;;;;6.37;4.27;;;17.80;73.50;;;;;;4984798;28;20523;-44
2022/06/11 00:34:14;;;;;;;5.50;3.87;;;17.80;73.60;;;;;;4989442;28;20989;-44
2022/06/11 00:36:43;;;;;;;5.70;4.00;;;17.80;73.90;;;;;;4976312;28;20567;-44
2022/06/11 00:39:11;;;;;;;6.93;5.13;;;17.70;74.00;;;;;;4990501;28;20548;-44
2022/06/11 00:41:41;;;;;;;7.47;4.90;;;17.70;74.10;;;;;;4975085;28;20592;-44
2022/06/11 00:44:08;;;;;;;6.37;4.63;;;17.70;74.10;;;;;;4990818;28;20823;-44
2022/06/11 00:46:35;;;;;;;6.90;4.80;;;17.70;74.30;;;;;;4988626;28;20942;-44
2022/06/11 00:49:10;;;;;;;10.80;4.90;;;17.70;74.40;;;;;;4992000;28;20825;-44
2022/06/11 00:51:38;;;;;;;9.20;4.87;;;17.60;74.60;;;;;;4970141;28;20500;-44
2022/06/11 00:54:13;;;;;;;5.17;4.70;;;17.60;74.80;;;;;;4989481;28;20886;-43
2022/06/11 00:56:52;;;;;;;5.80;4.40;;;17.60;75.00;;;;;;4974862;28;20552;-44
2022/06/11 00:59:27;;;;;;;5.47;4.47;;;17.60;75.10;;;;;;4988767;28;20883;-44
2022/06/11 01:01:54;;;;;;;5.10;4.63;;;17.60;75.10;;;;;;4958004;28;20496;-44
2022/06/11 01:04:39;;;;;;;4.83;4.33;;;17.60;75.20;;;;;;4974333;28;20744;-44
2022/06/11 01:07:37;;;;;;;5.90;4.50;;;17.50;75.00;;;;;;4972039;28;20465;-44
2022/06/11 01:10:28;;;;;;;5.70;4.10;;;17.50;75.20;;;;;;4989656;28;20468;-44
2022/06/11 01:13:10;;;;;;;4.80;4.40;;;17.50;75.10;;;;;;4988534;28;20457;-44
2022/06/11 01:15:52;;;;;;;4.63;4.10;;;17.50;74.80;;;;;;4989521;28;20460;-44
2022/06/11 01:18:32;;;;;;;6.10;3.80;;;17.40;74.70;;;;;;4983389;28;20535;-44
2022/06/11 01:21:15;;;;;;;7.97;4.83;;;17.40;75.00;;;;;;4986881;28;20564;-44
2022/06/11 01:24:16;;;;;;;4.57;4.17;;;17.30;75.20;;;;;;4973272;28;20465;-44
2022/06/11 01:27:02;;;;;;;5.07;4.40;;;17.30;75.30;;;;;;4987096;28;21378;-44
2022/06/11 01:29:37;;;;;;;5.60;4.40;;;17.30;75.30;;;;;;4988312;28;20457;-44
2022/06/11 01:32:13;;;;;;;6.07;4.07;;;17.20;75.50;;;;;;4971302;28;20479;-44
2022/06/11 01:34:52;;;;;;;4.93;4.53;;;17.20;75.60;;;;;;4986839;28;20512;-44
2022/06/11 01:37:28;;;;;;;5.50;5.00;;;17.20;75.50;;;;;;4986617;28;20492;-44
2022/06/11 01:40:19;;;;;;;6.00;4.20;;;17.20;75.40;;;;;;4971439;28;20461;-44
2022/06/11 01:42:54;;;;;;;5.77;4.80;;;17.20;75.30;;;;;;4988393;28;20492;-44
2022/06/11 01:45:29;;;;;;;7.63;4.43;;;17.10;75.40;;;;;;4986502;28;20467;-44
2022/06/11 01:47:58;;;;;;;6.03;5.20;;;17.10;75.60;;;;;;4988202;28;20540;-44
2022/06/11 01:50:28;;;;;;;7.27;4.90;;;17.10;75.80;;;;;;4987960;28;20458;-44
2022/06/11 01:53:33;;;;;;;6.10;4.10;;;17.10;75.80;;;;;;4987123;28;20544;-44
2022/06/11 01:56:33;;;;;;;6.23;4.40;;;17.10;75.90;;;;;;4978194;28;20549;-44
2022/06/11 01:59:12;;;;;;;6.13;4.40;;;17.10;75.80;;;;;;4982768;28;20585;-44
2022/06/11 02:02:01;;;;;;;5.07;4.33;;;17.10;75.90;;;;;;4986366;28;20572;-44
2022/06/11 02:04:37;;;;;;;4.90;4.13;;;17.00;75.80;;;;;;4971103;28;20837;-44
2022/06/11 02:07:18;;;;;;;10.27;4.60;;;17.00;76.00;;;;;;4987566;28;20465;-44
2022/06/11 02:09:55;;;;;;;5.00;4.50;;;17.00;76.30;;;;;;4982296;28;20552;-44
2022/06/11 02:12:24;;;;;;;7.63;4.60;;;17.00;76.40;;;;;;4968222;28;20662;-44
2022/06/11 02:15:00;;;;;;;6.30;4.80;;;17.00;76.40;;;;;;4986277;28;21030;-44
2022/06/11 02:17:33;;;;;;;4.83;4.43;;;16.90;76.60;;;;;;4972843;28;20552;-44
2022/06/11 02:20:13;;;;;;;5.03;4.30;;;16.90;76.60;;;;;;4986776;28;20922;-44
2022/06/11 02:22:47;;;;;;;6.80;5.10;;;16.90;76.50;;;;;;4985765;28;20523;-44
2022/06/11 02:25:21;;;;;;;5.50;4.90;;;16.90;76.70;;;;;;4968255;28;20471;-44
2022/06/11 02:27:52;;;;;;;4.17;3.87;;;17.00;76.40;;;;;;4987755;28;20467;-44
2022/06/11 02:30:23;;;;;;;4.83;4.20;;;17.00;76.30;;;;;;4985348;28;20959;-44
2022/06/11 02:32:49;;;;;;;5.83;4.30;;;16.90;76.40;;;;;;4987917;28;20607;-44
2022/06/11 02:35:46;;;;;;;8.37;4.73;;;16.90;76.40;;;;;;4987494;28;20465;-44
2022/06/11 02:38:17;;;;;;;5.17;4.77;;;16.90;76.60;;;;;;4985335;28;20548;-44
2022/06/11 02:40:49;;;;;;;4.80;4.40;;;16.90;76.70;;;;;;4971468;28;20898;-44
2022/06/11 02:43:16;;;;;;;5.67;5.07;;;16.90;76.40;;;;;;4986958;28;20572;-44
2022/06/11 02:45:43;;;;;;;5.77;4.93;;;16.90;76.50;;;;;;4971016;28;20593;-44
2022/06/11 02:48:11;;;;;;;5.20;4.60;;;16.90;76.70;;;;;;4971712;28;20453;-44
2022/06/11 02:50:37;;;;;;;6.97;4.97;;;17.00;76.80;;;;;;4987714;28;20464;-45
2022/06/11 02:53:06;;;;;;;5.47;4.60;;;17.00;76.80;;;;;;4986339;28;20465;-44
2022/06/11 02:55:35;;;;;;;8.27;4.77;;;17.00;76.80;;;;;;4969881;28;20456;-44
2022/06/11 02:58:04;;;;;;;5.60;4.67;;;17.00;76.90;;;;;;4971032;28;20556;-43
2022/06/11 03:00:36;;;;;;;5.33;4.10;;;17.00;77.00;;;;;;4985946;28;20487;-42
2022/06/11 03:03:03;;;;;;;5.53;4.40;;;17.00;77.10;;;;;;4986990;28;20492;-42
2022/06/11 03:05:33;;;;;;;6.57;4.70;;;17.00;77.10;;;;;;4985178;28;20549;-42
2022/06/11 03:08:01;;;;;;;5.27;4.57;;;17.00;77.20;;;;;;4956886;28;20977;-42
2022/06/11 03:10:29;;;;;;;5.00;4.10;;;17.10;77.10;;;;;;4984025;28;20540;-42
2022/06/11 03:12:56;;;;;;;9.20;5.90;;;17.10;77.00;;;;;;4986250;28;20457;-42
2022/06/11 03:15:25;;;;;;;6.00;4.80;;;17.10;77.10;;;;;;4985191;28;20476;-42
2022/06/11 03:17:55;;;;;;;4.97;4.40;;;17.10;77.10;;;;;;4979917;28;20469;-42
2022/06/11 03:20:24;;;;;;;7.13;4.90;;;17.10;77.30;;;;;;4986128;28;21107;-42
2022/06/11 03:22:51;;;;;;;5.83;5.20;;;17.10;77.20;;;;;;4984282;28;20505;-42
2022/06/11 03:25:17;;;;;;;5.27;4.77;;;17.10;77.30;;;;;;4968720;28;20457;-41
2022/06/11 03:27:45;;;;;;;5.70;5.20;;;17.10;77.30;;;;;;4978877;28;20548;-41
2022/06/11 03:30:14;;;;;;;5.20;4.57;;;17.20;77.20;;;;;;4958996;28;20454;-42
2022/06/11 03:32:41;;;;;;;7.93;4.43;;;17.20;77.20;;;;;;4987531;28;20457;-42
2022/06/11 03:35:08;;;;;;;4.93;4.53;;;17.20;77.30;;;;;;4977307;28;20465;-42
2022/06/11 03:37:35;;;;;;;5.83;4.20;;;17.20;77.20;;;;;;4973911;28;20967;-42
2022/06/11 03:40:03;;;;;;;9.80;5.03;;;17.20;77.30;;;;;;4985899;28;20461;-42
2022/06/11 03:42:31;;;;;;;4.50;4.17;;;17.30;77.40;;;;;;4977638;28;20852;-42
2022/06/11 03:44:59;;;;;;;9.60;5.00;;;17.30;77.40;;;;;;4958139;28;20583;-42
2022/06/11 03:47:25;;;;;;;8.23;4.93;;;17.30;77.30;;;;;;4965121;28;20461;-42
2022/06/11 03:49:53;;;;;;;9.10;4.40;;;17.30;77.10;;;;;;4979267;28;20544;-42
2022/06/11 03:52:19;;;;;;;5.73;4.30;;;17.30;76.80;;;;;;4975070;28;20463;-42
2022/06/11 03:54:47;;;;;;;7.40;4.50;;;17.40;76.80;;;;;;4976525;28;20465;-42
2022/06/11 03:57:15;;;;;;;5.73;4.80;;;17.40;76.90;;;;;;4944612;28;20495;-42
2022/06/11 03:59:42;;;;;;;6.37;5.17;;;17.40;76.60;;;;;;4976112;28;20492;-42
2022/06/11 04:02:09;;;;;;;6.60;4.20;;;17.40;76.70;;;;;;4967388;28;21184;-42
2022/06/11 04:04:36;;;;;;;7.80;4.80;;;17.50;76.70;;;;;;4983716;28;20465;-42
2022/06/11 04:07:03;;;;;;;5.10;4.60;;;17.50;76.70;;;;;;4964915;28;20466;-42
2022/06/11 04:09:37;;;;;;;9.13;5.47;;;17.50;76.40;;;;;;4955296;28;21013;-42
2022/06/11 04:12:09;;;;;;;9.73;4.93;;;17.50;76.20;;;;;;4976396;28;20556;-42
2022/06/11 04:14:39;;;;;;;6.57;4.60;;;17.50;76.10;;;;;;4976976;28;20468;-42
2022/06/11 04:17:10;;;;;;;4.97;4.50;;;17.50;76.40;;;;;;4974009;28;20472;-42
2022/06/11 04:19:40;;;;;;;4.80;4.23;;;17.60;76.60;;;;;;4972576;28;20472;-42
2022/06/11 04:22:07;;;;;;;7.57;5.00;;;17.60;76.50;;;;;;4984176;28;20879;-42
2022/06/11 04:24:35;;;;;;;6.23;4.93;;;17.60;76.40;;;;;;4975579;28;21013;-42
2022/06/11 04:27:04;;;;;;;7.17;4.40;;;17.60;76.50;;;;;;4982374;28;21028;-42
2022/06/11 04:29:35;;;;;;;6.17;5.17;;;17.60;76.40;;;;;;4963458;28;20460;-42
2022/06/11 04:32:04;;;;;;;5.10;4.30;;;17.60;76.50;;;;;;4978652;28;20468;-42
2022/06/11 04:34:32;;;;;;;8.10;4.00;;;17.50;76.80;;;;;;4983247;28;20471;-42
2022/06/11 04:36:59;;;;;;;5.10;4.60;;;17.60;77.10;;;;;;4989147;28;20858;-42
2022/06/11 04:39:29;;;;;;;8.00;5.00;;;17.60;77.10;;;;;;4960735;28;20823;-42
2022/06/11 04:41:57;;;;;;;6.60;4.33;;;17.50;77.10;;;;;;4984235;28;20448;-42
2022/06/11 04:44:24;;;;;;;6.23;4.70;;;17.60;77.20;;;;;;4980225;28;20485;-42
2022/06/11 04:46:51;;;;;;;4.70;4.20;;;17.60;77.40;;;;;;4982898;28;20620;-42
2022/06/11 04:49:18;;;;;;;8.67;5.63;;;17.60;77.30;;;;;;4988586;28;20821;-42
2022/06/11 04:51:45;;;;;;;7.63;5.07;;;17.60;77.20;;;;;;4988235;28;21116;-42
2022/06/11 04:54:12;;;;;;;5.00;4.50;;;17.60;77.30;;;;;;4982448;28;20471;-42
2022/06/11 04:56:40;;;;;;;4.73;4.17;;;17.70;77.30;;;;;;4988817;28;20540;-42
2022/06/11 04:59:07;;;;;;;7.20;4.67;;;17.70;76.60;;;;;;4959773;28;20469;-42
2022/06/11 05:01:39;;;;;;;5.87;4.57;;;17.80;76.60;;;;;;4975675;28;20511;-42
2022/06/11 05:04:06;;;;;;;4.70;4.10;;;17.90;76.50;;;;;;4971720;28;20497;-42
2022/06/11 05:06:39;;;;;;;7.20;4.60;;;17.90;76.40;;;;;;4984678;28;20462;-42
2022/06/11 05:09:08;;;;;;;8.20;5.37;;;17.90;76.50;;;;;;4984611;28;20890;-42
2022/06/11 05:11:35;;;;;;;4.47;4.07;;;17.90;76.70;;;;;;4981887;28;20462;-42
2022/06/11 05:14:02;;;;;;;5.33;4.87;;;17.90;76.40;;;;;;4983230;28;22644;-42
2022/06/11 05:16:29;;;;;;;5.87;4.77;;;17.90;76.50;;;;;;4982662;28;20457;-41
2022/06/11 05:18:56;;;;;;;5.53;4.60;;;18.10;76.40;;;;;;4972577;28;20495;-41
2022/06/11 05:21:23;;;;;;;6.53;4.87;;;18.10;76.20;;;;;;4981154;28;20496;-41
2022/06/11 05:23:50;;;;;;;5.83;4.70;;;18.20;76.10;;;;;;4974808;28;20493;-41
2022/06/11 05:26:21;;;;;;;7.23;4.13;;;18.20;76.10;;;;;;4983228;28;20493;-42
2022/06/11 05:28:50;;;;;;;6.33;4.27;;;18.20;76.20;;;;;;4971878;28;20465;-42
2022/06/11 05:31:17;;;;;;;11.73;4.50;;;18.20;76.30;;;;;;4961157;28;20473;-41
2022/06/11 05:33:44;;;;;;;7.60;4.30;;;18.20;76.10;;;;;;4975750;28;20473;-42
2022/06/11 05:36:13;;;;;;;5.90;4.30;;;18.30;76.00;;;;;;4970389;28;20475;-42
2022/06/11 05:38:40;;;;;;;7.80;4.80;;;18.40;75.80;;;;;;4986864;28;20453;-42
2022/06/11 05:41:08;;;;;;;6.63;4.33;;;18.60;74.90;;;;;;4986310;28;20505;-42
2022/06/11 05:43:34;;;;;;;7.23;4.30;;;18.60;74.60;;;;;;4980490;28;20526;-42
2022/06/11 05:46:05;;;;;;;7.90;4.37;;;18.60;74.60;;;;;;4968486;28;20548;-42
2022/06/11 05:48:40;;;;;;;4.93;3.87;;;18.60;74.60;;;;;;4971133;28;20904;-42
2022/06/11 05:51:10;;;;;;;3.83;3.43;;;18.70;74.40;;;;;;4951706;28;20452;-42
2022/06/11 05:53:46;;;;;;;7.60;4.70;;;18.80;74.10;;;;;;4970064;28;20464;-42
2022/06/11 05:56:12;;;;;;;4.93;4.13;;;18.90;73.70;;;;;;4970912;28;20963;-41
2022/06/11 05:58:44;;;;;;;6.80;3.83;;;19.00;73.30;;;;;;4971677;28;20465;-41
2022/06/11 06:01:14;;;;;;;5.30;4.20;;;19.00;73.10;;;;;;4969573;28;20481;-41
2022/06/11 06:03:40;;;;;;;5.20;4.30;;;19.20;72.40;;;;;;4984266;28;20501;-41
2022/06/11 06:06:07;;;;;;;6.43;3.93;;;19.20;72.40;;;;;;4990969;28;20544;-41
2022/06/11 06:08:34;;;;;;;7.93;4.47;;;19.30;72.30;;;;;;4989619;28;20537;-41
2022/06/11 06:11:01;;;;;;;4.80;4.30;;;19.30;72.30;;;;;;4986019;28;20576;-41
2022/06/11 06:13:46;;;;;;;7.67;3.70;;;19.40;72.10;;;;;;4990028;28;20468;-41
2022/06/11 06:16:20;;;;;;;5.63;4.10;;;19.50;71.90;;;;;;4984331;28;20512;-41
2022/06/11 06:18:48;;;;;;;4.00;3.70;;;19.50;71.90;;;;;;4968332;28;20503;-41
2022/06/11 06:21:18;;;;;;;5.77;3.73;;;19.60;71.70;;;;;;4984653;28;20461;-41
2022/06/11 06:23:45;;;;;;;6.07;4.10;;;19.60;71.50;;;;;;4986574;28;20575;-41
2022/06/11 06:26:12;;;;;;;11.17;4.97;;;19.70;70.80;;;;;;4967275;28;20449;-41
2022/06/11 06:28:39;;;;;;;4.17;3.53;;;19.80;70.30;;;;;;4989157;28;20468;-41
2022/06/11 06:31:07;;;;;;;5.87;4.00;;;19.90;70.20;;;;;;4966046;28;20471;-41
2022/06/11 06:33:34;;;;;;;8.63;3.40;;;19.90;70.40;;;;;;4986747;28;21145;-41
2022/06/11 06:36:05;;;;;;;10.67;4.00;;;20.00;69.90;;;;;;4989186;28;20504;-41
2022/06/11 06:38:33;;;;;;;4.80;4.00;;;20.00;70.00;;;;;;4987603;28;20564;-41
2022/06/11 06:41:00;;;;;;;3.87;3.57;;;20.00;70.10;;;;;;4973080;28;20469;-41
2022/06/11 06:43:30;;;;;;;5.33;3.37;;;20.10;70.40;;;;;;4969216;28;20493;-41
2022/06/11 06:45:57;;;;;;;6.97;3.10;;;20.20;71.00;;;;;;4985795;28;20464;-41
2022/06/11 06:48:23;;;;;;;4.67;3.80;;;20.30;70.90;;;;;;4984986;28;20576;-41
2022/06/11 06:50:50;;;;;;;5.47;3.60;;;20.30;70.60;;;;;;4980106;28;20462;-41
2022/06/11 06:53:17;;;;;;;4.03;3.67;;;20.40;70.00;;;;;;4988958;28;20954;-41
2022/06/11 06:55:44;;;;;;;10.40;4.00;;;20.40;70.10;;;;;;4987030;28;20823;-41
2022/06/11 06:58:11;;;;;;;5.20;3.40;;;20.50;69.90;;;;;;4981731;28;20461;-41
2022/06/11 07:00:37;;;;;;;5.10;3.80;;;20.50;69.70;;;;;;4985759;28;21029;-41
2022/06/11 07:03:04;;;;;;;7.27;3.20;;;20.50;69.60;;;;;;4985725;28;20528;-41
2022/06/11 07:05:32;;;;;;;4.30;3.10;;;20.60;69.60;;;;;;4984902;28;20485;-41
2022/06/11 07:07:59;;;;;;;3.97;3.33;;;20.70;69.10;;;;;;4982614;28;20966;-41
2022/06/11 07:10:26;;;;;;;5.00;3.87;;;20.80;69.10;;;;;;4984296;28;20461;-41
2022/06/11 07:12:53;;;;;;;4.33;3.70;;;20.80;69.40;;;;;;4969314;28;20453;-41
2022/06/11 07:15:20;;;;;;;4.50;3.70;;;20.80;69.30;;;;;;4987247;28;20465;-41
2022/06/11 07:17:54;;;;;;;7.80;3.90;;;20.80;69.10;;;;;;4969336;28;20555;-41
2022/06/11 07:20:24;;;;;;;6.33;4.00;;;20.80;69.10;;;;;;4946260;28;20557;-41
2022/06/11 07:23:12;;;;;;;4.10;3.00;;;20.90;69.30;;;;;;4987718;28;20456;-41
2022/06/11 07:25:42;;;;;;;3.50;3.20;;;21.00;69.50;;;;;;4969571;28;20503;-41
2022/06/11 07:28:25;;;;;;;4.20;3.80;;;21.10;69.20;;;;;;4983687;28;20877;-41
2022/06/11 07:30:52;;;;;;;7.03;3.50;;;21.30;69.30;;;;;;4987393;28;20881;-41
2022/06/11 07:33:23;;;;;;;6.27;3.20;;;21.40;68.80;;;;;;4985566;28;20552;-41
2022/06/11 07:35:52;;;;;;;4.90;2.77;;;21.50;67.90;;;;;;4987920;28;20559;-41
2022/06/11 07:38:26;;;;;;;4.10;2.70;;;21.70;67.50;;;;;;4987254;28;20994;-41
2022/06/11 07:40:53;;;;;;;7.47;2.80;;;21.90;67.10;;;;;;4967439;28;20471;-41
2022/06/11 07:43:20;;;;;;;3.53;2.10;;;22.10;66.00;;;;;;4986242;28;20484;-41
2022/06/11 07:45:48;;;;;;;3.67;2.30;;;22.30;64.30;;;;;;4971496;28;20462;-41
2022/06/11 07:48:16;;;;;;;3.60;2.63;;;22.50;63.00;;;;;;4987976;28;20812;-42
2022/06/11 07:50:46;;;;;;;2.77;2.30;;;22.60;63.40;;;;;;4984718;28;20540;-42
2022/06/11 07:53:16;;;;;;;3.40;2.13;;;22.70;64.30;;;;;;4987190;28;20469;-42
2022/06/11 07:55:45;;;;;;;3.40;2.40;;;22.80;63.70;;;;;;4969255;28;20469;-42
2022/06/11 07:58:14;;;;;;;4.53;2.60;;;23.00;63.20;;;;;;4985095;28;20465;-42
2022/06/11 08:00:45;;;;;;;4.57;2.70;;;23.10;63.20;;;;;;4985930;28;20480;-42
2022/06/11 08:03:12;;;;;;;2.50;2.20;;;23.30;62.60;;;;;;4990832;28;20494;-42
2022/06/11 08:05:41;;;;;;;9.97;2.30;;;23.50;60.00;;;;;;4979385;28;20477;-42
2022/06/11 08:08:09;;;;;;;2.83;2.10;;;23.70;57.60;;;;;;4988869;28;20543;-42
2022/06/11 08:10:38;;;;;;;2.50;1.87;;;23.90;57.90;;;;;;4978781;28;20464;-42
2022/06/11 08:13:07;;;;;;;5.43;1.90;;;24.00;57.40;;;;;;4983840;28;20460;-42
2022/06/11 08:15:36;;;;;;;5.23;2.00;;;24.30;57.00;;;;;;4987210;28;20464;-42
2022/06/11 08:18:03;;;;;;;6.07;1.77;;;24.40;56.30;;;;;;4989320;28;20464;-42
2022/06/11 08:20:32;;;;;;;8.30;2.37;;;24.70;55.00;;;;;;4977715;28;20539;-42
2022/06/11 08:22:59;;;;;;;1.83;1.70;;;24.90;54.50;;;;;;4981902;28;21037;-42
2022/06/11 08:25:26;;;;;;;2.23;1.40;;;25.10;53.40;;;;;;4987124;28;21162;-42
2022/06/11 08:27:54;;;;;;;1.47;1.30;;;25.30;52.60;;;;;;4986248;28;20565;-42
2022/06/11 08:30:23;;;;;;;1.30;1.20;;;25.40;51.90;;;;;;4986981;28;20460;-42
2022/06/11 08:32:51;;;;;;;2.03;1.20;;;25.40;51.90;;;;;;4981622;28;20468;-42
2022/06/11 08:35:21;;;;;;;1.67;1.20;;;25.60;51.30;;;;;;4982102;28;20464;-42
2022/06/11 08:37:49;;;;;;;1.33;1.17;;;25.60;51.50;;;;;;4969100;28;20465;-43
2022/06/11 08:40:22;;;;;;;1.90;1.30;;;25.80;51.50;;;;;;4988116;28;20959;-43
2022/06/11 08:43:14;;;;;;;2.83;1.40;;;25.90;49.60;;;;;;4990026;28;20460;-43
2022/06/11 08:45:59;;;;;;;3.10;1.80;;;26.00;50.10;;;;;;4987515;28;20457;-43
2022/06/11 08:49:04;;;;;;;2.70;1.50;;;26.10;50.60;;;;;;4957549;28;20468;-43
2022/06/11 08:51:48;;;;;;;2.17;1.30;;;26.30;50.60;;;;;;4934987;28;20497;-43
2022/06/11 08:54:23;;;;;;;4.00;2.20;;;26.30;49.30;;;;;;4971698;28;20455;-43
2022/06/11 08:56:58;;;;;;;1.93;1.50;;;26.30;48.90;;;;;;4970102;28;20495;-46
2022/06/11 08:59:36;;;;;;;2.43;1.57;;;26.40;49.50;;;;;;4995163;28;20452;-46
2022/06/11 09:02:30;;;;;;;1.33;1.20;;;26.50;49.90;;;;;;4991091;28;20468;-47
2022/06/11 09:05:36;;;;;;;4.60;1.50;;;26.60;48.30;;;;;;4987319;28;20856;-45
2022/06/11 09:08:23;;;;;;;2.63;1.30;;;26.70;48.60;;;;;;4988229;28;20540;-45
2022/06/11 09:11:27;;;;;;;3.23;1.60;;;26.80;48.40;;;;;;4987850;28;20829;-44
2022/06/11 09:14:23;;;;;;;2.63;1.13;;;26.90;47.70;;;;;;4972581;28;20464;-45
2022/06/11 09:17:09;;;;;;;1.37;1.20;;;27.20;47.60;;;;;;4988269;28;20464;-46
2022/06/11 09:19:36;;;;;;;2.63;1.40;;;27.40;47.00;;;;;;4990077;28;20216;-45
2022/06/11 09:22:07;;;;;;;2.03;1.40;;;27.50;47.40;;;;;;4973059;28;20507;-45
2022/06/11 09:24:53;;;;;;;3.80;1.27;;;27.60;47.70;;;;;;4987470;28;20320;-45
2022/06/11 09:27:45;;;;;;;1.80;1.27;;;27.80;46.40;;;;;;4987743;28;20212;-44
2022/06/11 09:30:39;;;;;;;2.00;1.33;;;27.90;45.70;;;;;;4981266;28;20205;-45
2022/06/11 09:33:22;;;;;;;1.97;1.00;;;28.00;46.10;;;;;;4988608;28;20248;-45
2022/06/11 09:35:56;;;;;;;1.73;1.03;;;27.80;46.50;;;;;;4986518;28;20223;-44
2022/06/11 09:38:50;;;;;;;1.83;1.10;;;27.70;46.50;;;;;;4986449;28;20212;-44
2022/06/11 09:41:50;;;;;;;2.40;1.30;;;27.70;46.20;;;;;;4971605;28;20837;-44
2022/06/11 09:44:28;;;;;;;2.50;1.30;;;27.80;47.00;;;;;;4987006;28;20236;-44
2022/06/11 09:47:40;;;;;;;3.77;1.57;;;28.20;47.00;;;;;;4965968;28;20215;-44
2022/06/11 09:50:38;;;;;;;2.73;1.20;;;28.40;45.90;;;;;;4925253;29;20677;-44
2022/06/11 09:53:40;;;;;;;2.33;1.40;;;28.30;45.60;;;;;;4923388;29;20740;-44
2022/06/11 09:56:38;;;;;;;2.73;1.33;;;28.30;46.30;;;;;;4967431;28;20327;-44
2022/06/11 09:59:27;;;;;;;1.73;1.27;;;28.40;45.80;;;;;;4985984;28;20207;-45
2022/06/11 10:02:16;;;;;;;2.03;1.60;;;28.50;45.10;;;;;;4983856;28;20657;-44
2022/06/11 10:04:46;;;;;;;3.80;1.50;;;28.60;45.60;;;;;;4985049;28;20348;-44
2022/06/11 10:07:31;;;;;;;3.63;1.77;;;28.60;45.50;;;;;;4987136;28;20698;-46
2022/06/11 10:10:09;;;;;;;1.60;1.40;;;28.60;45.30;;;;;;4985069;28;20232;-43
2022/06/11 10:12:51;;;;;;;2.00;1.13;;;28.60;45.40;;;;;;4987270;28;20316;-45
2022/06/11 10:15:24;;;;;;;3.08;2.17;;;28.80;44.90;;;;;;4987471;28;20343;-45
2022/06/11 10:18:00;;;;;;;0.93;0.93;;;28.80;44.30;;;;;;4967237;28;20272;-46
2022/06/11 10:20:30;;;;;;;3.88;0.93;;;28.90;44.30;;;;;;4984441;28;20977;-46
2022/06/11 10:23:10;;;;;;;1.23;1.03;;;29.10;43.80;;;;;;4987536;28;20213;-45
2022/06/11 10:25:50;;;;;;;1.10;0.88;;;29.00;43.50;;;;;;4983525;28;20752;-46
2022/06/11 10:28:26;;;;;;;2.93;1.07;;;28.70;44.10;;;;;;4985670;28;20205;-46
2022/06/11 10:30:57;;;;;;;2.70;1.20;;;28.50;43.70;;;;;;4982641;28;20216;-46
2022/06/11 10:33:35;;;;;;;2.92;0.90;;;28.50;44.00;;;;;;4980861;28;20210;-46
2022/06/11 10:36:14;;;;;;;4.78;1.27;;;28.70;44.60;;;;;;4984639;28;20213;-44
2022/06/11 10:39:11;;;;;;;1.13;0.85;;;28.70;44.60;;;;;;4982210;28;20578;-44
2022/06/11 10:42:11;;;;;;;3.30;1.15;;;28.90;45.40;;;;;;4985955;28;20214;-44
2022/06/11 10:44:47;;;;;;;2.13;1.10;;;28.90;44.20;;;;;;4981927;28;20699;-44
2022/06/11 10:47:23;;;;;;;3.15;2.10;;;28.70;44.60;;;;;;4983020;28;20205;-44
2022/06/11 10:49:57;;;;;;;13.13;11.70;;;28.50;45.40;;;;;;4985205;28;20421;-45
2022/06/11 10:52:35;;;;;;;5.63;2.83;;;28.30;45.20;;;;;;4983867;28;20232;-45
2022/06/11 10:55:06;;;;;;;3.23;1.50;;;28.10;45.40;;;;;;4986331;28;20209;-44
2022/06/11 10:57:34;;;;;;;1.33;1.13;;;27.90;45.80;;;;;;4968813;28;20205;-45
2022/06/11 11:00:05;;;;;;;1.43;1.33;;;27.80;45.20;;;;;;4986764;28;20316;-45
2022/06/11 11:02:36;;;;;;;2.50;1.30;;;27.60;46.10;;;;;;4986211;28;20323;-45
2022/06/11 11:05:08;;;;;;;2.37;1.53;;;27.50;46.20;;;;;;4959298;28;20238;-44
2022/06/11 11:08:01;;;;;;;1.13;0.77;;;27.50;46.20;;;;;;4987417;28;20583;-44
2022/06/11 11:10:34;;;;;;;3.37;1.23;;;27.50;46.40;;;;;;4965737;28;20213;-44
2022/06/11 11:13:18;;;;;;;1.50;1.40;;;27.50;45.80;;;;;;4986252;28;20239;-46
2022/06/11 11:15:54;;;;;;;2.07;1.27;;;27.40;46.50;;;;;;4964110;28;20236;-46
2022/06/11 11:18:23;;;;;;;3.60;1.70;;;27.30;46.70;;;;;;4984858;28;20209;-46
2022/06/11 11:20:54;;;;;;;1.80;1.10;;;27.30;46.60;;;;;;4983365;28;20702;-45
2022/06/11 11:23:28;;;;;;;1.33;1.00;;;27.30;46.50;;;;;;4969854;28;20228;-46
2022/06/11 11:26:21;;;;;;;37.67;28.77;;;27.10;46.50;;;;;;4986750;28;20379;-45
2022/06/11 11:29:14;;;;;;;2.60;1.53;;;27.00;47.20;;;;;;4977867;28;20247;-46
2022/06/11 11:31:45;;;;;;;2.30;1.13;;;26.90;47.70;;;;;;4973658;28;20474;-45
2022/06/11 11:34:16;;;;;;;1.90;1.40;;;26.90;47.60;;;;;;4984874;28;20466;-45
2022/06/11 11:36:44;;;;;;;1.20;1.10;;;26.80;47.90;;;;;;4983512;28;21107;-45
2022/06/11 11:39:15;;;;;;;2.90;1.70;;;26.70;47.90;;;;;;4984414;28;20674;-45
2022/06/11 11:42:02;;;;;;;3.57;0.90;;;26.70;47.90;;;;;;4981424;28;20558;-45
2022/06/11 11:44:51;;;;;;;1.20;1.10;;;26.80;48.30;;;;;;4962895;28;22382;-45
2022/06/11 11:47:27;;;;;;;3.60;2.77;;;26.80;48.20;;;;;;4984284;28;20206;-45
2022/06/11 11:50:04;;;;;;;2.50;1.70;;;26.70;47.60;;;;;;4987150;28;20464;-44
2022/06/11 11:52:30;;;;;;;2.43;1.43;;;26.70;48.10;;;;;;4955848;28;20467;-45
2022/06/11 11:55:00;;;;;;;2.87;1.40;;;26.70;48.40;;;;;;4984235;28;20595;-45
2022/06/11 11:57:31;;;;;;;2.77;1.20;;;26.70;47.80;;;;;;4985321;28;20481;-46
2022/06/11 12:00:04;;;;;;;2.23;1.60;;;26.60;48.30;;;;;;4984315;28;20315;-45
2022/06/11 12:02:46;;;;;;;2.87;1.67;;;26.60;48.60;;;;;;4981466;28;20957;-45
2022/06/11 12:05:21;;;;;;;2.80;1.70;;;26.60;49.60;;;;;;4982882;28;20511;-44
2022/06/11 12:07:50;;;;;;;3.60;1.70;;;26.70;48.80;;;;;;4981482;28;20468;-44
2022/06/11 12:10:28;;;;;;;1.63;1.40;;;26.70;49.00;;;;;;4980032;28;20215;-44
2022/06/11 12:12:56;;;;;;;1.90;1.40;;;26.70;48.70;;;;;;4985160;28;20637;-44
2022/06/11 12:15:28;;;;;;;2.20;1.30;;;26.70;48.40;;;;;;4983780;28;20471;-44
2022/06/11 12:18:16;;;;;;;5.23;2.90;;;26.70;47.70;;;;;;4983085;28;20974;-45
2022/06/11 12:20:52;;;;;;;9.17;6.47;;;26.70;47.60;;;;;;4981941;28;20475;-45
2022/06/11 12:23:21;;;;;;;2.90;2.07;;;26.80;47.90;;;;;;4982163;28;20468;-45
2022/06/11 12:25:58;;;;;;;4.33;1.40;;;26.80;47.80;;;;;;4962218;28;20239;-45
2022/06/11 12:28:34;;;;;;;1.93;1.47;;;26.90;48.60;;;;;;4979592;28;20497;-44
2022/06/11 12:31:01;;;;;;;2.03;1.10;;;27.00;49.30;;;;;;4980653;28;20456;-44
2022/06/11 12:33:28;;;;;;;2.90;1.90;;;27.10;47.50;;;;;;4978318;28;20476;-44
2022/06/11 12:36:05;;;;;;;3.10;1.60;;;27.20;47.90;;;;;;4986625;28;20296;-44
2022/06/11 12:38:55;;;;;;;2.57;1.47;;;27.20;48.40;;;;;;4977851;28;20213;-44
2022/06/11 12:41:48;;;;;;;1.97;1.70;;;27.20;47.80;;;;;;4976590;28;20247;-44
2022/06/11 12:44:25;;;;;;;2.90;1.30;;;27.20;48.30;;;;;;4984908;28;20324;-45
2022/06/11 12:47:30;;;;;;;3.20;1.40;;;27.30;48.10;;;;;;4988560;28;20455;-45
2022/06/11 12:50:41;;;;;;;1.60;1.50;;;27.30;47.50;;;;;;4985620;28;20502;-45
2022/06/11 12:53:42;;;;;;;1.43;1.33;;;27.30;47.60;;;;;;4987921;28;20522;-44
2022/06/11 12:56:18;;;;;;;3.30;1.57;;;27.30;48.10;;;;;;4972624;28;20240;-45
2022/06/11 12:59:16;;;;;;;3.33;1.70;;;27.30;47.90;;;;;;4986926;28;20312;-44
2022/06/11 13:02:08;;;;;;;1.70;1.40;;;27.30;47.50;;;;;;4988663;28;20311;-45
2022/06/11 13:04:50;;;;;;;1.43;1.33;;;27.30;47.90;;;;;;4988555;28;20528;-44
2022/06/11 13:07:24;;;;;;;1.77;1.53;;;27.30;47.40;;;;;;4967248;28;21275;-44
2022/06/11 13:09:58;;;;;;;2.67;1.40;;;27.30;47.20;;;;;;4988871;28;20666;-45
2022/06/11 13:12:59;;;;;;;1.60;1.40;;;27.30;47.50;;;;;;4984394;28;21115;-44
2022/06/11 13:15:45;;;;;;;1.10;1.00;;;27.40;47.40;;;;;;4987721;28;20825;-45
2022/06/11 13:18:20;;;;;;;2.20;1.10;;;27.40;47.70;;;;;;4988886;28;20213;-45
2022/06/11 13:21:03;;;;;;;2.73;1.40;;;27.40;47.60;;;;;;4990068;28;20243;-44
2022/06/11 13:23:43;;;;;;;2.60;1.57;;;27.40;47.20;;;;;;4988437;28;20206;-45